createdAt,value
2017-08-22T00:00:04.094Z,0
2017-08-22T00:01:14.324Z,0
2017-08-22T00:02:23.653Z,0
2017-08-22T00:03:33.261Z,0
2017-08-22T00:04:43.181Z,0
2017-08-22T00:05:53.418Z,0
2017-08-22T00:07:03.328Z,0
2017-08-22T00:08:12.939Z,0
2017-08-22T00:09:22.551Z,0
2017-08-22T00:10:32.296Z,0
2017-08-22T00:11:42.215Z,0
2017-08-22T00:12:52.146Z,0
2017-08-22T00:14:02.093Z,0
2017-08-22T00:15:12.309Z,0
2017-08-22T00:16:21.410Z,0
2017-08-22T00:17:31.323Z,0
2017-08-22T00:18:41.229Z,0
2017-08-22T00:19:51.466Z,0
2017-08-22T00:21:01.694Z,0
2017-08-22T00:22:11.308Z,0
2017-08-22T00:23:21.253Z,0
2017-08-22T00:24:31.514Z,0
2017-08-22T00:25:41.134Z,0
2017-08-22T00:26:50.734Z,0
2017-08-22T00:28:00.485Z,0
2017-08-22T00:29:10.399Z,0
2017-08-22T00:30:20.318Z,0
2017-08-22T00:31:30.236Z,0
2017-08-22T00:32:39.846Z,0
2017-08-22T00:33:49.305Z,0
2017-08-22T00:34:59.521Z,0
2017-08-22T00:36:09.755Z,0
2017-08-22T00:37:19.053Z,0
2017-08-22T00:38:28.987Z,0
2017-08-22T00:39:39.229Z,0
2017-08-22T00:40:49.175Z,0
2017-08-22T00:41:59.395Z,0
2017-08-22T00:43:09.041Z,0
2017-08-22T00:44:19.266Z,0
2017-08-22T00:45:28.989Z,0
2017-08-22T00:46:38.300Z,0
2017-08-22T00:47:47.941Z,0
2017-08-22T00:48:58.159Z,0
2017-08-22T00:50:07.768Z,0
2017-08-22T00:51:17.731Z,0
2017-08-22T00:52:27.334Z,0
2017-08-22T00:53:37.590Z,0
2017-08-22T00:54:47.824Z,0
2017-08-22T00:55:57.733Z,0
2017-08-22T00:57:07.955Z,0
2017-08-22T00:58:17.910Z,0
2017-08-22T00:59:27.832Z,0
2017-08-22T01:00:38.077Z,0
2017-08-22T01:01:47.699Z,0
2017-08-22T01:02:58.074Z,0
2017-08-22T01:04:07.990Z,0
2017-08-22T01:05:17.287Z,0
2017-08-22T01:06:27.497Z,0
2017-08-22T01:07:37.406Z,0
2017-08-22T01:08:47.777Z,0
2017-08-22T01:09:57.381Z,0
2017-08-22T01:11:06.989Z,0
2017-08-22T01:12:16.901Z,0
2017-08-22T01:13:26.851Z,0
2017-08-22T01:14:36.776Z,0
2017-08-22T01:15:46.395Z,0
2017-08-22T01:16:56.306Z,0
2017-08-22T01:18:06.238Z,0
2017-08-22T01:19:16.179Z,0
2017-08-22T01:20:26.259Z,0
2017-08-22T01:21:36.182Z,0
2017-08-22T01:22:46.103Z,0
2017-08-22T01:23:56.035Z,0
2017-08-22T01:25:05.649Z,0
2017-08-22T01:26:15.363Z,0
2017-08-22T01:27:25.275Z,0
2017-08-22T01:28:34.917Z,0
2017-08-22T01:29:45.148Z,0
2017-08-22T01:30:54.758Z,0
2017-08-22T01:32:04.708Z,0
2017-08-22T01:33:14.639Z,0
2017-08-22T01:34:24.860Z,0
2017-08-22T01:35:34.792Z,0
2017-08-22T01:36:44.415Z,0
2017-08-22T01:37:54.803Z,0
2017-08-22T01:39:04.711Z,0
2017-08-22T01:40:14.931Z,0
2017-08-22T01:41:24.559Z,0
2017-08-22T01:42:34.499Z,0
2017-08-22T01:43:44.513Z,0
2017-08-22T01:44:54.750Z,0
2017-08-22T01:46:04.667Z,0
2017-08-22T01:47:14.581Z,0
2017-08-22T01:48:24.786Z,0
2017-08-22T01:49:34.549Z,0
2017-08-22T01:50:44.781Z,0
2017-08-22T01:51:55.001Z,0
2017-08-22T01:53:04.909Z,0
2017-08-22T01:54:14.834Z,0
2017-08-22T01:55:25.209Z,0
2017-08-22T01:56:35.453Z,0
2017-08-22T01:57:45.369Z,0
2017-08-22T01:58:55.309Z,0
2017-08-22T02:00:05.228Z,0
2017-08-22T02:01:15.520Z,0
2017-08-22T02:02:25.772Z,0
2017-08-22T02:03:36.050Z,0
2017-08-22T02:04:45.964Z,0
2017-08-22T02:05:55.872Z,0
2017-08-22T02:07:05.628Z,0
2017-08-22T02:08:15.864Z,0
2017-08-22T02:09:25.764Z,0
2017-08-22T02:10:35.673Z,0
2017-08-22T02:11:45.907Z,0
2017-08-22T02:12:55.272Z,0
2017-08-22T02:14:05.516Z,0
2017-08-22T02:15:15.134Z,0
2017-08-22T02:16:25.047Z,0
2017-08-22T02:17:35.263Z,0
2017-08-22T02:18:45.786Z,0
2017-08-22T02:19:55.399Z,0
2017-08-22T02:21:05.320Z,0
2017-08-22T02:22:15.257Z,0
2017-08-22T02:23:24.562Z,0
2017-08-22T02:24:34.805Z,0
2017-08-22T02:25:44.119Z,0
2017-08-22T02:26:54.345Z,0
2017-08-22T02:28:03.960Z,0
2017-08-22T02:29:13.892Z,0
2017-08-22T02:30:24.291Z,0
2017-08-22T02:31:33.909Z,0
2017-08-22T02:32:43.217Z,0
2017-08-22T02:33:52.553Z,0
2017-08-22T02:35:02.497Z,0
2017-08-22T02:36:12.268Z,0
2017-08-22T02:37:21.577Z,0
2017-08-22T02:38:31.504Z,0
2017-08-22T02:39:41.119Z,0
2017-08-22T02:40:51.051Z,0
2017-08-22T02:42:00.828Z,0
2017-08-22T02:43:11.084Z,0
2017-08-22T02:44:21.312Z,0
2017-08-22T02:45:30.927Z,0
2017-08-22T02:46:40.846Z,0
2017-08-22T02:47:51.193Z,0
2017-08-22T02:49:01.436Z,0
2017-08-22T02:50:11.062Z,0
2017-08-22T02:51:20.980Z,0
2017-08-22T02:52:30.917Z,0
2017-08-22T02:53:40.390Z,0
2017-08-22T02:54:50.346Z,0
2017-08-22T02:56:00.291Z,0
2017-08-22T02:57:10.528Z,0
2017-08-22T02:58:20.780Z,0
2017-08-22T02:59:30.720Z,0
2017-08-22T03:00:40.348Z,0
2017-08-22T03:01:49.955Z,0
2017-08-22T03:02:59.890Z,0
2017-08-22T03:04:10.124Z,0
2017-08-22T03:05:19.744Z,0
2017-08-22T03:06:29.681Z,0
2017-08-22T03:07:39.889Z,0
2017-08-22T03:08:49.812Z,0
2017-08-22T03:10:00.028Z,0
2017-08-22T03:11:10.268Z,0
2017-08-22T03:12:19.892Z,0
2017-08-22T03:13:29.830Z,0
2017-08-22T03:14:40.066Z,0
2017-08-22T03:15:49.994Z,0
2017-08-22T03:16:59.743Z,0
2017-08-22T03:18:09.363Z,0
2017-08-22T03:19:18.995Z,0
2017-08-22T03:20:28.925Z,0
2017-08-22T03:21:37.939Z,0
2017-08-22T03:22:47.401Z,0
2017-08-22T03:23:57.628Z,0
2017-08-22T03:25:07.851Z,0
2017-08-22T03:26:17.471Z,0
2017-08-22T03:27:27.711Z,0
2017-08-22T03:28:38.082Z,0
2017-08-22T03:29:48.017Z,0
2017-08-22T03:30:57.936Z,0
2017-08-22T03:32:07.554Z,0
2017-08-22T03:33:16.859Z,0
2017-08-22T03:34:27.134Z,0
2017-08-22T03:35:37.376Z,0
2017-08-22T03:36:47.310Z,0
2017-08-22T03:37:57.570Z,0
2017-08-22T03:39:07.832Z,0
2017-08-22T03:40:17.868Z,0
2017-08-22T03:41:27.807Z,0
2017-08-22T03:42:37.435Z,0
2017-08-22T03:43:47.671Z,0
2017-08-22T03:44:57.623Z,0
2017-08-22T03:46:07.695Z,0
2017-08-22T03:47:17.320Z,0
2017-08-22T03:48:26.930Z,0
2017-08-22T03:49:37.157Z,0
2017-08-22T03:50:47.101Z,0
2017-08-22T03:51:57.166Z,0
2017-08-22T03:53:07.081Z,0
2017-08-22T03:54:17.305Z,0
2017-08-22T03:55:26.923Z,0
2017-08-22T03:56:36.557Z,0
2017-08-22T03:57:46.486Z,0
2017-08-22T03:58:56.411Z,0
2017-08-22T04:00:06.637Z,0
2017-08-22T04:01:16.600Z,0
2017-08-22T04:02:26.208Z,0
2017-08-22T04:03:36.127Z,0
2017-08-22T04:04:46.054Z,0
2017-08-22T04:08:28.441Z,0
2017-08-22T04:09:38.676Z,0
2017-08-22T04:10:48.897Z,0
2017-08-22T04:11:58.812Z,0
2017-08-22T04:13:09.022Z,0
2017-08-22T04:14:18.985Z,0
2017-08-22T04:15:28.893Z,0
2017-08-22T04:16:38.497Z,0
2017-08-22T04:17:48.113Z,0
2017-08-22T04:18:58.018Z,0
2017-08-22T04:20:08.070Z,0
2017-08-22T04:21:18.287Z,0
2017-08-22T04:22:27.591Z,0
2017-08-22T04:23:37.824Z,0
2017-08-22T04:24:47.763Z,0
2017-08-22T04:25:57.751Z,0
2017-08-22T04:27:07.353Z,0
2017-08-22T04:28:17.293Z,0
2017-08-22T04:29:27.222Z,0
2017-08-22T04:30:36.854Z,0
2017-08-22T04:31:47.128Z,0
2017-08-22T04:32:56.760Z,0
2017-08-22T04:34:06.396Z,0
2017-08-22T04:35:16.636Z,0
2017-08-22T04:36:26.556Z,0
2017-08-22T04:37:36.979Z,0
2017-08-22T04:38:46.578Z,0
2017-08-22T04:39:56.506Z,0
2017-08-22T04:41:06.420Z,0
2017-08-22T04:42:16.355Z,0
2017-08-22T04:43:26.566Z,0
2017-08-22T04:44:36.200Z,0
2017-08-22T04:45:46.436Z,0
2017-08-22T04:46:56.048Z,0
2017-08-22T04:48:05.658Z,0
2017-08-22T04:49:15.777Z,0
2017-08-22T04:50:25.694Z,0
2017-08-22T04:51:35.916Z,0
2017-08-22T04:52:46.130Z,0
2017-08-22T04:53:56.369Z,0
2017-08-22T04:55:05.411Z,0
2017-08-22T04:56:15.327Z,0
2017-08-22T04:57:25.247Z,0
2017-08-22T04:58:35.179Z,0
2017-08-22T04:59:45.433Z,0
2017-08-22T05:00:55.987Z,0
2017-08-22T05:02:06.213Z,0
2017-08-22T05:03:15.517Z,0
2017-08-22T05:04:24.522Z,0
2017-08-22T05:05:33.831Z,0
2017-08-22T05:06:44.210Z,5
2017-08-22T05:07:53.838Z,5
2017-08-22T05:09:03.454Z,5
2017-08-22T05:10:13.065Z,5
2017-08-22T05:11:22.718Z,5
2017-08-22T05:12:32.644Z,5
2017-08-22T05:13:42.579Z,5
2017-08-22T05:14:52.805Z,5
2017-08-22T05:16:02.419Z,5
2017-08-22T05:17:12.377Z,5
2017-08-22T05:18:22.296Z,5
2017-08-22T05:19:32.505Z,5
2017-08-22T05:20:42.424Z,5
2017-08-22T05:21:51.730Z,5
2017-08-22T05:23:01.641Z,5
2017-08-22T05:24:11.569Z,5
2017-08-22T05:25:21.795Z,10
2017-08-22T05:26:31.404Z,10
2017-08-22T05:27:41.633Z,10
2017-08-22T05:28:51.573Z,10
2017-08-22T05:30:01.185Z,10
2017-08-22T05:31:11.105Z,10
2017-08-22T05:32:21.326Z,10
2017-08-22T05:33:30.325Z,10
2017-08-22T05:34:40.554Z,10
2017-08-22T05:35:50.468Z,10
2017-08-22T05:37:00.680Z,10
2017-08-22T05:38:10.925Z,10
2017-08-22T05:39:21.147Z,10
2017-08-22T05:40:30.453Z,10
2017-08-22T05:41:40.400Z,10
2017-08-22T05:42:50.044Z,10
2017-08-22T05:43:59.978Z,10
2017-08-22T05:45:09.602Z,10
2017-08-22T05:46:19.201Z,10
2017-08-22T05:47:29.442Z,10
2017-08-22T05:48:39.346Z,10
2017-08-22T05:49:49.272Z,10
2017-08-22T05:51:00.301Z,15
2017-08-22T05:52:10.585Z,10
2017-08-22T05:53:20.304Z,15
2017-08-22T05:54:30.532Z,10
2017-08-22T05:55:40.446Z,10
2017-08-22T05:56:50.363Z,15
2017-08-22T05:57:59.984Z,15
2017-08-22T05:59:09.615Z,15
2017-08-22T06:00:19.530Z,15
2017-08-22T06:01:29.442Z,15
2017-08-22T06:02:39.365Z,15
2017-08-22T06:03:49.681Z,15
2017-08-22T06:04:59.923Z,15
2017-08-22T06:06:09.849Z,15
2017-08-22T06:07:19.452Z,15
2017-08-22T06:08:29.681Z,15
2017-08-22T06:09:39.292Z,15
2017-08-22T06:10:49.240Z,20
2017-08-22T06:11:58.854Z,20
2017-08-22T06:13:08.457Z,20
2017-08-22T06:14:18.064Z,20
2017-08-22T06:15:27.991Z,20
2017-08-22T06:16:37.967Z,20
2017-08-22T06:17:47.293Z,20
2017-08-22T06:18:57.519Z,20
2017-08-22T06:20:06.829Z,20
2017-08-22T06:21:16.758Z,25
2017-08-22T06:22:26.516Z,25
2017-08-22T06:23:35.818Z,25
2017-08-22T06:24:45.758Z,25
2017-08-22T06:25:55.973Z,25
2017-08-22T06:27:05.889Z,30
2017-08-22T06:28:16.276Z,30
2017-08-22T06:29:25.578Z,30
2017-08-22T06:30:34.890Z,30
2017-08-22T06:31:44.829Z,30
2017-08-22T06:32:54.753Z,30
2017-08-22T06:34:05.128Z,30
2017-08-22T06:35:15.383Z,35
2017-08-22T06:36:25.636Z,35
2017-08-22T06:37:34.952Z,35
2017-08-22T06:38:45.179Z,35
2017-08-22T06:39:54.798Z,35
2017-08-22T06:41:04.715Z,35
2017-08-22T06:42:14.962Z,35
2017-08-22T06:43:25.209Z,35
2017-08-22T06:44:35.144Z,35
2017-08-22T06:45:45.213Z,35
2017-08-22T06:46:55.438Z,35
2017-08-22T06:48:05.105Z,40
2017-08-22T06:49:15.367Z,40
2017-08-22T06:50:25.282Z,40
2017-08-22T06:51:35.390Z,40
2017-08-22T06:52:45.342Z,40
2017-08-22T06:53:55.256Z,40
2017-08-22T06:55:05.173Z,40
2017-08-22T06:56:15.423Z,40
2017-08-22T06:57:25.213Z,40
2017-08-22T06:58:35.469Z,40
2017-08-22T06:59:45.411Z,40
2017-08-22T07:00:55.021Z,40
2017-08-22T07:02:04.942Z,40
2017-08-22T07:03:14.552Z,45
2017-08-22T07:04:25.082Z,45
2017-08-22T07:05:35.008Z,45
2017-08-22T07:06:44.940Z,45
2017-08-22T07:07:53.941Z,45
2017-08-22T07:09:03.877Z,45
2017-08-22T07:10:14.092Z,45
2017-08-22T07:11:24.325Z,45
2017-08-22T07:12:34.547Z,45
2017-08-22T07:13:44.787Z,45
2017-08-22T07:14:54.705Z,45
2017-08-22T07:16:04.636Z,45
2017-08-22T07:17:14.259Z,45
2017-08-22T07:18:23.584Z,50
2017-08-22T07:19:33.503Z,50
2017-08-22T07:20:43.658Z,50
2017-08-22T07:21:53.895Z,50
2017-08-22T07:23:04.130Z,50
2017-08-22T07:24:13.444Z,50
2017-08-22T07:25:23.363Z,50
2017-08-22T07:26:33.589Z,50
2017-08-22T07:27:43.863Z,50
2017-08-22T07:28:53.484Z,50
2017-08-22T07:30:03.706Z,55
2017-08-22T07:31:13.320Z,55
2017-08-22T07:32:22.376Z,55
2017-08-22T07:33:32.607Z,60
2017-08-22T07:34:42.533Z,60
2017-08-22T07:35:52.450Z,65
2017-08-22T07:37:02.670Z,80
2017-08-22T07:38:12.694Z,150
2017-08-22T07:39:22.631Z,160
2017-08-22T07:40:32.547Z,150
2017-08-22T07:41:42.170Z,140
2017-08-22T07:42:52.109Z,135
2017-08-22T07:44:02.436Z,130
2017-08-22T07:45:12.748Z,125
2017-08-22T07:46:22.673Z,125
2017-08-22T07:47:32.281Z,125
2017-08-22T07:48:41.915Z,125
2017-08-22T07:49:51.982Z,120
2017-08-22T07:51:02.239Z,120
2017-08-22T07:52:11.540Z,120
2017-08-22T07:53:21.169Z,120
2017-08-22T07:54:30.476Z,120
2017-08-22T07:55:40.720Z,120
2017-08-22T07:56:50.950Z,120
2017-08-22T07:58:00.866Z,120
2017-08-22T07:59:10.799Z,120
2017-08-22T08:00:20.736Z,120
2017-08-22T08:01:30.338Z,120
2017-08-22T08:02:39.967Z,120
2017-08-22T08:03:50.217Z,120
2017-08-22T08:05:00.451Z,120
2017-08-22T08:06:10.056Z,115
2017-08-22T08:07:20.283Z,95
2017-08-22T08:08:30.511Z,80
2017-08-22T08:09:40.742Z,75
2017-08-22T08:10:50.686Z,70
2017-08-22T08:11:59.986Z,65
2017-08-22T08:13:10.209Z,65
2017-08-22T08:14:19.838Z,65
2017-08-22T08:15:29.461Z,60
2017-08-22T08:16:39.699Z,60
2017-08-22T08:17:49.618Z,60
2017-08-22T08:18:59.862Z,65
2017-08-22T08:20:09.796Z,70
2017-08-22T08:21:19.774Z,70
2017-08-22T08:22:29.137Z,65
2017-08-22T08:23:39.061Z,65
2017-08-22T08:24:48.819Z,65
2017-08-22T08:25:58.744Z,65
2017-08-22T08:27:08.051Z,60
2017-08-22T08:28:17.667Z,60
2017-08-22T08:29:27.907Z,60
2017-08-22T08:30:37.539Z,60
2017-08-22T08:31:47.484Z,60
2017-08-22T08:32:57.089Z,60
2017-08-22T08:34:07.008Z,60
2017-08-22T08:35:16.926Z,60
2017-08-22T08:36:26.858Z,60
2017-08-22T08:37:36.793Z,60
2017-08-22T08:38:47.037Z,55
2017-08-22T08:39:56.952Z,55
2017-08-22T08:41:07.173Z,55
2017-08-22T08:42:16.625Z,55
2017-08-22T08:43:26.266Z,55
2017-08-22T08:44:36.189Z,55
2017-08-22T08:45:46.427Z,55
2017-08-22T08:46:56.353Z,55
2017-08-22T08:48:06.432Z,50
2017-08-22T08:49:16.652Z,50
2017-08-22T08:50:26.615Z,50
2017-08-22T08:51:36.854Z,50
2017-08-22T08:52:45.856Z,50
2017-08-22T08:53:55.930Z,50
2017-08-22T08:55:06.155Z,50
2017-08-22T08:56:15.777Z,50
2017-08-22T08:57:25.693Z,45
2017-08-22T08:58:35.328Z,45
2017-08-22T08:59:45.597Z,45
2017-08-22T09:00:55.210Z,45
2017-08-22T09:02:05.119Z,45
2017-08-22T09:03:15.355Z,45
2017-08-22T09:04:24.965Z,45
2017-08-22T09:05:35.000Z,45
2017-08-22T09:06:44.950Z,45
2017-08-22T09:07:55.186Z,45
2017-08-22T09:09:05.127Z,45
2017-08-22T09:10:15.380Z,45
2017-08-22T09:11:25.632Z,45
2017-08-22T09:12:35.859Z,45
2017-08-22T09:13:45.175Z,40
2017-08-22T09:14:54.814Z,40
2017-08-22T09:16:04.447Z,40
2017-08-22T09:17:14.469Z,40
2017-08-22T09:18:23.766Z,40
2017-08-22T09:19:33.685Z,40
2017-08-22T09:20:44.025Z,40
2017-08-22T09:21:54.244Z,40
2017-08-22T09:23:04.470Z,40
2017-08-22T09:24:14.399Z,40
2017-08-22T09:25:24.349Z,40
2017-08-22T09:26:34.286Z,40
2017-08-22T09:27:44.512Z,35
2017-08-22T09:28:54.478Z,35
2017-08-22T09:30:04.106Z,35
2017-08-22T09:31:14.024Z,35
2017-08-22T09:32:23.629Z,35
2017-08-22T09:33:33.548Z,35
2017-08-22T09:34:43.633Z,35
2017-08-22T09:35:53.561Z,35
2017-08-22T09:37:03.783Z,35
2017-08-22T09:38:13.393Z,35
2017-08-22T09:39:23.334Z,35
2017-08-22T09:40:33.630Z,35
2017-08-22T09:41:43.898Z,35
2017-08-22T09:42:54.146Z,35
2017-08-22T09:44:03.444Z,35
2017-08-22T09:45:13.365Z,35
2017-08-22T09:46:23.669Z,30
2017-08-22T09:47:33.599Z,30
2017-08-22T09:48:43.870Z,30
2017-08-22T09:49:53.776Z,30
2017-08-22T09:51:03.722Z,30
2017-08-22T09:52:13.179Z,30
2017-08-22T09:53:23.167Z,30
2017-08-22T09:54:32.787Z,30
2017-08-22T09:55:43.007Z,30
2017-08-22T09:56:52.935Z,30
2017-08-22T09:58:03.239Z,30
2017-08-22T09:59:13.176Z,30
2017-08-22T10:00:23.089Z,30
2017-08-22T10:01:33.011Z,30
2017-08-22T10:02:43.240Z,30
2017-08-22T10:03:52.668Z,30
2017-08-22T10:05:02.908Z,30
2017-08-22T10:06:13.148Z,30
2017-08-22T10:07:22.764Z,25
2017-08-22T10:08:31.773Z,25
2017-08-22T10:09:42.023Z,25
2017-08-22T10:10:51.652Z,25
2017-08-22T10:12:01.635Z,30
2017-08-22T10:13:11.548Z,30
2017-08-22T10:14:21.186Z,25
2017-08-22T10:15:31.305Z,25
2017-08-22T10:16:41.227Z,25
2017-08-22T10:17:51.145Z,25
2017-08-22T10:19:01.082Z,25
2017-08-22T10:20:11.336Z,25
2017-08-22T10:21:21.742Z,25
2017-08-22T10:22:31.386Z,25
2017-08-22T10:23:40.705Z,25
2017-08-22T10:24:50.971Z,25
2017-08-22T10:26:00.591Z,25
2017-08-22T10:27:10.656Z,25
2017-08-22T10:28:20.265Z,25
2017-08-22T10:29:30.199Z,25
2017-08-22T10:30:39.838Z,25
2017-08-22T10:31:49.448Z,25
2017-08-22T10:32:59.732Z,25
2017-08-22T10:34:09.682Z,20
2017-08-22T10:35:19.596Z,20
2017-08-22T10:36:29.832Z,20
2017-08-22T10:37:39.476Z,20
2017-08-22T10:38:49.500Z,20
2017-08-22T10:39:59.458Z,20
2017-08-22T10:41:09.399Z,20
2017-08-22T10:42:19.610Z,20
2017-08-22T10:43:29.228Z,20
2017-08-22T10:44:39.142Z,20
2017-08-22T10:45:49.080Z,20
2017-08-22T10:46:59.026Z,20
2017-08-22T10:48:08.979Z,25
2017-08-22T10:49:19.235Z,25
2017-08-22T10:50:29.167Z,20
2017-08-22T10:51:39.105Z,20
2017-08-22T10:52:49.037Z,20
2017-08-22T10:53:58.983Z,20
2017-08-22T10:55:08.899Z,20
2017-08-22T10:56:19.275Z,20
2017-08-22T10:57:29.210Z,20
2017-08-22T10:58:38.516Z,20
2017-08-22T10:59:48.750Z,20
2017-08-22T11:00:58.064Z,25
2017-08-22T11:02:08.311Z,25
2017-08-22T11:03:18.557Z,25
2017-08-22T11:04:28.786Z,25
2017-08-22T11:05:39.003Z,25
2017-08-22T11:06:49.230Z,25
2017-08-22T11:07:59.465Z,25
2017-08-22T11:09:09.097Z,25
2017-08-22T11:10:18.121Z,25
2017-08-22T11:11:28.363Z,30
2017-08-22T11:12:38.590Z,30
2017-08-22T11:13:48.605Z,30
2017-08-22T11:14:58.526Z,25
2017-08-22T11:16:08.788Z,25
2017-08-22T11:17:18.713Z,25
2017-08-22T11:18:28.330Z,25
2017-08-22T11:19:38.658Z,25
2017-08-22T11:20:48.887Z,25
2017-08-22T11:21:58.819Z,25
2017-08-22T11:23:09.044Z,25
2017-08-22T11:24:19.030Z,25
2017-08-22T11:25:28.691Z,25
2017-08-22T11:26:38.642Z,25
2017-08-22T11:27:48.718Z,30
2017-08-22T11:28:58.979Z,35
2017-08-22T11:30:08.649Z,35
2017-08-22T11:31:19.054Z,30
2017-08-22T11:32:29.280Z,30
2017-08-22T11:33:38.920Z,35
2017-08-22T11:34:49.161Z,30
2017-08-22T11:35:59.102Z,30
2017-08-22T11:37:09.385Z,30
2017-08-22T11:38:19.610Z,30
2017-08-22T11:39:29.247Z,30
2017-08-22T11:40:39.161Z,35
2017-08-22T11:41:48.789Z,40
2017-08-22T11:42:58.107Z,40
2017-08-22T11:44:07.733Z,35
2017-08-22T11:45:17.660Z,35
2017-08-22T11:46:27.928Z,30
2017-08-22T11:47:37.558Z,30
2017-08-22T11:48:46.981Z,25
2017-08-22T11:49:57.211Z,30
2017-08-22T11:51:06.824Z,30
2017-08-22T11:52:16.748Z,30
2017-08-22T11:53:26.704Z,30
2017-08-22T11:54:36.803Z,30
2017-08-22T11:55:46.438Z,25
2017-08-22T11:56:56.095Z,25
2017-08-22T11:58:06.705Z,20
2017-08-22T11:59:16.928Z,25
2017-08-22T12:00:26.973Z,30
2017-08-22T12:01:36.604Z,30
2017-08-22T12:02:46.529Z,30
2017-08-22T12:03:56.169Z,30
2017-08-22T12:05:06.385Z,30
2017-08-22T12:06:16.776Z,30
2017-08-22T12:07:27.003Z,30
2017-08-22T12:08:37.223Z,30
2017-08-22T12:09:46.840Z,25
2017-08-22T12:10:55.849Z,20
2017-08-22T12:12:06.169Z,25
2017-08-22T12:13:16.100Z,30
2017-08-22T12:14:26.032Z,30
2017-08-22T12:15:35.979Z,30
2017-08-22T12:16:46.342Z,30
2017-08-22T12:17:56.748Z,25
2017-08-22T12:19:06.056Z,25
2017-08-22T12:20:15.678Z,20
2017-08-22T12:21:25.308Z,20
2017-08-22T12:22:35.230Z,20
2017-08-22T12:23:45.824Z,20
2017-08-22T12:24:55.755Z,25
2017-08-22T12:26:05.062Z,20
2017-08-22T12:27:15.009Z,20
2017-08-22T12:28:24.634Z,20
2017-08-22T12:29:34.394Z,20
2017-08-22T12:30:44.632Z,20
2017-08-22T12:31:54.237Z,20
2017-08-22T12:33:04.146Z,20
2017-08-22T12:34:13.769Z,25
2017-08-22T12:35:24.070Z,25
2017-08-22T12:36:33.992Z,25
2017-08-22T12:37:43.313Z,20
2017-08-22T12:38:52.936Z,20
2017-08-22T12:40:02.855Z,20
2017-08-22T12:41:13.237Z,20
2017-08-22T12:42:23.160Z,20
2017-08-22T12:43:32.783Z,20
2017-08-22T12:44:41.790Z,20
2017-08-22T12:45:52.033Z,20
2017-08-22T12:47:01.954Z,20
2017-08-22T12:48:11.869Z,15
2017-08-22T12:49:21.812Z,15
2017-08-22T12:50:32.061Z,15
2017-08-22T12:51:41.970Z,15
2017-08-22T12:52:51.682Z,15
2017-08-22T12:54:01.595Z,15
2017-08-22T12:55:11.819Z,15
2017-08-22T12:56:21.125Z,15
2017-08-22T12:57:31.050Z,15
2017-08-22T12:58:40.873Z,10
2017-08-22T12:59:50.844Z,15
2017-08-22T13:01:00.787Z,10
2017-08-22T13:02:10.421Z,10
2017-08-22T13:03:20.686Z,15
2017-08-22T13:04:31.071Z,15
2017-08-22T13:05:40.696Z,15
2017-08-22T13:06:50.630Z,10
2017-08-22T13:08:00.239Z,10
2017-08-22T13:09:09.885Z,10
2017-08-22T13:10:19.283Z,15
2017-08-22T13:11:28.898Z,10
2017-08-22T13:12:38.897Z,10
2017-08-22T13:13:49.108Z,10
2017-08-22T13:14:58.722Z,10
2017-08-22T13:16:08.704Z,10
2017-08-22T13:17:18.310Z,10
2017-08-22T13:18:28.529Z,10
2017-08-22T13:19:38.467Z,10
2017-08-22T13:20:48.688Z,10
2017-08-22T13:21:59.078Z,10
2017-08-22T13:23:08.689Z,10
2017-08-22T13:24:18.610Z,10
2017-08-22T13:25:28.554Z,10
2017-08-22T13:26:38.797Z,15
2017-08-22T13:27:48.546Z,15
2017-08-22T13:28:58.825Z,15
2017-08-22T13:30:08.773Z,15
2017-08-22T13:31:18.123Z,10
2017-08-22T13:32:28.046Z,10
2017-08-22T13:33:37.991Z,10
2017-08-22T13:34:47.931Z,10
2017-08-22T13:35:57.269Z,10
2017-08-22T13:37:07.180Z,10
2017-08-22T13:38:17.117Z,10
2017-08-22T13:39:27.353Z,10
2017-08-22T13:40:37.263Z,10
2017-08-22T13:41:47.239Z,10
2017-08-22T13:42:56.871Z,10
2017-08-22T13:44:06.804Z,10
2017-08-22T13:45:16.874Z,10
2017-08-22T13:46:26.815Z,10
2017-08-22T13:47:37.063Z,10
2017-08-22T13:48:46.688Z,10
2017-08-22T13:49:56.013Z,10
2017-08-22T13:51:06.277Z,10
2017-08-22T13:52:15.883Z,10
2017-08-22T13:53:25.547Z,10
2017-08-22T13:54:35.489Z,10
2017-08-22T13:55:45.420Z,10
2017-08-22T13:56:55.411Z,10
2017-08-22T13:58:04.754Z,15
2017-08-22T13:59:14.075Z,15
2017-08-22T14:00:23.384Z,15
2017-08-22T14:01:33.300Z,10
2017-08-22T14:02:43.569Z,10
2017-08-22T14:03:53.512Z,10
2017-08-22T14:05:03.433Z,10
2017-08-22T14:06:13.723Z,10
2017-08-22T14:07:23.668Z,15
2017-08-22T14:08:34.051Z,15
2017-08-22T14:09:43.677Z,15
2017-08-22T14:10:53.914Z,10
2017-08-22T14:12:04.312Z,10
2017-08-22T14:13:14.273Z,10
2017-08-22T14:14:23.736Z,10
2017-08-22T14:15:33.957Z,10
2017-08-22T14:16:43.566Z,10
2017-08-22T14:17:53.563Z,10
2017-08-22T14:19:03.800Z,10
2017-08-22T14:20:14.150Z,10
2017-08-22T14:21:24.072Z,10
2017-08-22T14:22:34.321Z,10
2017-08-22T14:23:43.948Z,10
2017-08-22T14:24:53.890Z,5
2017-08-22T14:26:03.826Z,10
2017-08-22T14:27:14.047Z,10
2017-08-22T14:28:23.663Z,10
2017-08-22T14:29:33.589Z,10
2017-08-22T14:30:42.593Z,10
2017-08-22T14:31:52.961Z,10
2017-08-22T14:33:02.899Z,10
2017-08-22T14:34:13.130Z,10
2017-08-22T14:35:23.065Z,10
2017-08-22T14:36:32.988Z,10
2017-08-22T14:37:43.081Z,10
2017-08-22T14:38:52.702Z,10
2017-08-22T14:40:02.007Z,10
2017-08-22T14:41:11.623Z,10
2017-08-22T14:42:21.859Z,10
2017-08-22T14:43:31.788Z,10
2017-08-22T14:44:41.790Z,10
2017-08-22T14:45:52.041Z,10
2017-08-22T14:47:02.002Z,10
2017-08-22T14:48:11.934Z,10
2017-08-22T14:49:22.024Z,10
2017-08-22T14:50:31.986Z,10
2017-08-22T14:51:41.909Z,10
2017-08-22T14:52:51.851Z,10
2017-08-22T14:54:01.762Z,10
2017-08-22T14:55:12.054Z,10
2017-08-22T14:56:22.043Z,10
2017-08-22T14:57:32.282Z,10
2017-08-22T14:58:42.235Z,10
2017-08-22T14:59:52.493Z,10
2017-08-22T15:01:01.959Z,10
2017-08-22T15:02:12.198Z,10
2017-08-22T15:03:22.121Z,10
2017-08-22T15:04:31.743Z,10
2017-08-22T15:05:41.674Z,10
2017-08-22T15:06:51.974Z,10
2017-08-22T15:08:02.185Z,10
2017-08-22T15:09:12.117Z,10
2017-08-22T15:10:21.735Z,10
2017-08-22T15:11:31.421Z,10
2017-08-22T15:12:41.639Z,10
2017-08-22T15:13:51.614Z,10
2017-08-22T15:15:01.228Z,10
2017-08-22T15:16:11.191Z,10
2017-08-22T15:17:21.108Z,10
2017-08-22T15:18:31.100Z,10
2017-08-22T15:19:41.318Z,10
2017-08-22T15:20:51.606Z,10
2017-08-22T15:22:01.565Z,10
2017-08-22T15:23:11.496Z,10
2017-08-22T15:24:22.129Z,10
2017-08-22T15:25:32.379Z,10
2017-08-22T15:26:42.293Z,10
2017-08-22T15:27:52.235Z,10
2017-08-22T15:29:01.880Z,10
2017-08-22T15:30:11.969Z,10
2017-08-22T15:31:21.886Z,10
2017-08-22T15:32:31.847Z,10
2017-08-22T15:33:41.446Z,10
2017-08-22T15:34:51.060Z,10
2017-08-22T15:36:00.830Z,10
2017-08-22T15:37:11.069Z,10
2017-08-22T15:38:21.322Z,10
2017-08-22T15:39:31.567Z,10
2017-08-22T15:40:41.188Z,10
2017-08-22T15:41:51.474Z,10
2017-08-22T15:43:01.411Z,10
2017-08-22T15:44:11.345Z,10
2017-08-22T15:45:21.305Z,10
2017-08-22T15:46:31.274Z,10
2017-08-22T15:47:40.937Z,10
2017-08-22T15:48:51.166Z,10
2017-08-22T15:50:01.200Z,10
2017-08-22T15:51:11.126Z,10
2017-08-22T15:52:21.377Z,10
2017-08-22T15:53:31.476Z,10
2017-08-22T15:54:41.114Z,5
2017-08-22T15:55:51.022Z,5
2017-08-22T15:57:01.267Z,5
2017-08-22T15:58:11.501Z,5
2017-08-22T15:59:21.279Z,5
2017-08-22T16:00:31.515Z,5
2017-08-22T16:01:41.427Z,5
2017-08-22T16:02:51.654Z,5
2017-08-22T16:04:01.269Z,5
2017-08-22T16:05:10.319Z,5
2017-08-22T16:06:20.579Z,5
2017-08-22T16:07:30.855Z,5
2017-08-22T16:08:40.488Z,5
2017-08-22T16:09:50.434Z,5
2017-08-22T16:11:00.536Z,5
2017-08-22T16:12:10.805Z,5
2017-08-22T16:13:21.041Z,5
2017-08-22T16:14:30.973Z,5
2017-08-22T16:15:41.250Z,5
2017-08-22T16:16:51.364Z,5
2017-08-22T16:18:01.608Z,5
2017-08-22T16:19:11.550Z,5
2017-08-22T16:20:21.204Z,5
2017-08-22T16:21:30.818Z,5
2017-08-22T16:22:40.608Z,5
2017-08-22T16:23:50.567Z,5
2017-08-22T16:25:00.222Z,5
2017-08-22T16:26:09.841Z,5
2017-08-22T16:27:19.775Z,5
2017-08-22T16:28:30.160Z,5
2017-08-22T16:29:40.407Z,5
2017-08-22T16:30:50.023Z,5
2017-08-22T16:31:59.947Z,5
2017-08-22T16:33:09.304Z,5
2017-08-22T16:34:18.928Z,5
2017-08-22T16:35:28.926Z,5
2017-08-22T16:36:38.846Z,5
2017-08-22T16:37:48.443Z,5
2017-08-22T16:38:58.714Z,5
2017-08-22T16:40:09.122Z,5
2017-08-22T16:41:19.072Z,5
2017-08-22T16:42:29.014Z,5
2017-08-22T16:43:38.939Z,5
2017-08-22T16:44:49.166Z,5
2017-08-22T16:45:59.509Z,5
2017-08-22T16:47:09.431Z,5
2017-08-22T16:48:19.036Z,5
2017-08-22T16:49:29.288Z,5
2017-08-22T16:50:38.905Z,5
2017-08-22T16:51:48.535Z,5